Carona, Kansas
Current Conditions -  °F | °C
As of 11:15 AM on Sunday 23 Nov 2014 (Local Time) from KPTS Reporting Station
Overcast Overcast  
Wind Chill: 61°   Ceiling: 1700
Heat Index: 61°   Visibility: 10mi
Dew Point: 58°   Wind: 10mph
Humidity: 88%   Direction: 200°SSW
Pressure: 29.41"   Gusts: NA
Location:  37.2661°N, 94.8513°W
Report Text: KPTS 231715Z AUTO 20009KT 10SM BKN017 BKN023 OVC029 16/14 A2941 RMK AO2 T01620142
Loading
Personal Weather Stations






























Interactive Weather Map New forecast layout! Learn more

10-Day Weather Forecast

Advertisements
Track Severe Weather on mobile